Norfolk — WDG2147 — position and weather

sailwx.info

Track history (hours):
 
Tides and Currents Weather Stations Pressure Air Temp Water Temp Dewpoint Dewpoint Depression Visibility Wind Speed Wind Dir Waves Ship Positions

Norfolk

Owner: Virginia Pilot Boat Corporation, Virginia Beach, VA. More information available from US FCC via Universal Licensing System and Coast Guard Vessel Documentation Center.

Last reported at 2018-Jun-08 10:49 UTC. Time now 2018-Jun-19 21:36 UTC.
Position N 36°58' W 076°23'.
Warning: this ship's position is 11 days out of date.

Length 18 m; draft 1.5 m.

Type: Pilot. MMSI: 367512630.

Date/timePositionNaut miles runAvg speedWind from/ knotsBaromVisibWave heightAir tempDewpointWater temp
2018-Jun-08 10:49N 36°58' W 076°23'620.9
2018-Jun-08 10:30N 36°60' W 076°15'15 4.0
2018-Jun-08 06:44N 36°56' W 075°57'19 0.9
2018-Jun-07 10:49N 36°53' W 076°20'0 0.0
2018-Jun-07 07:21N 36°53' W 076°20'0 0.2
2018-Jun-07 06:32N 36°53' W 076°20'025.1
2018-Jun-07 06:31N 36°52' W 076°20'1 0.1
2018-Jun-06 21:00N 36°52' W 076°19'3 0.4
2018-Jun-06 12:37N 36°55' W 076°20'0 0.1
2018-Jun-06 12:24N 36°55' W 076°20'0 0.0
2018-Jun-06 12:00N 36°55' W 076°20'4 7.3
2018-Jun-06 11:30N 36°51' W 076°19'4 5.9
2018-Jun-06 10:54N 36°55' W 076°20'0 0.0
2018-Jun-06 10:29N 36°55' W 076°20'0 0.0
2018-Jun-05 16:40N 36°55' W 076°20'0 0.0
2018-Jun-05 15:25N 36°55' W 076°20'3 0.5
2018-Jun-05 10:14N 36°53' W 076°21'  
Track history (hours):
 
Tides and Currents Weather Stations Pressure Air Temp Water Temp Dewpoint Dewpoint Depression Visibility Wind Speed Wind Dir Waves Ship Positions

Norfolk

Owner: Virginia Pilot Boat Corporation, Virginia Beach, VA. More information available from US FCC via Universal Licensing System and Coast Guard Vessel Documentation Center.

Last reported at 2018-Jun-08 10:49 UTC. Time now 2018-Jun-19 21:36 UTC.
Position N 36°58' W 076°23'.
Warning: this ship's position is 11 days out of date.

Length 18 m; draft 1.5 m.

Type: Pilot. MMSI: 367512630.

Date/timePositionNaut miles runAvg speedWind from/ knotsBaromVisibWave heightAir tempDewpointWater temp
2018-Jun-08 10:49N 36°58' W 076°23'620.9
2018-Jun-08 10:30N 36°60' W 076°15'15 4.0
2018-Jun-08 06:44N 36°56' W 075°57'19 0.9
2018-Jun-07 10:49N 36°53' W 076°20'0 0.0
2018-Jun-07 07:21N 36°53' W 076°20'0 0.2
2018-Jun-07 06:32N 36°53' W 076°20'025.1
2018-Jun-07 06:31N 36°52' W 076°20'1 0.1
2018-Jun-06 21:00N 36°52' W 076°19'3 0.4
2018-Jun-06 12:37N 36°55' W 076°20'0 0.1
2018-Jun-06 12:24N 36°55' W 076°20'0 0.0
2018-Jun-06 12:00N 36°55' W 076°20'4 7.3
2018-Jun-06 11:30N 36°51' W 076°19'4 5.9
2018-Jun-06 10:54N 36°55' W 076°20'0 0.0
2018-Jun-06 10:29N 36°55' W 076°20'0 0.0
2018-Jun-05 16:40N 36°55' W 076°20'0 0.0
2018-Jun-05 15:25N 36°55' W 076°20'3 0.5
2018-Jun-05 10:14N 36°53' W 076°21'  

Dump ship's entire track history